createdAt,value
2022-11-17T00:37:37.000Z,13.20
2022-11-17T00:52:55.000Z,11.20
2022-11-17T00:52:55.000Z,10.50
2022-11-17T01:02:55.000Z,12.80
2022-11-17T01:12:55.000Z,10.70
2022-11-17T01:22:55.000Z,11.90
2022-11-17T01:32:55.000Z,10.10
2022-11-17T01:42:55.000Z,8.60
2022-11-17T01:52:55.000Z,8.50
2022-11-17T02:02:55.000Z,10.10
2022-11-17T02:22:55.000Z,10.10
2022-11-17T02:32:55.000Z,10.20
2022-11-17T02:42:55.000Z,10.90
2022-11-17T02:52:55.000Z,12.30
2022-11-17T03:02:55.000Z,12.40
2022-11-17T03:12:55.000Z,10.90
2022-11-17T03:22:55.000Z,11.70
2022-11-17T03:32:55.000Z,10.50
2022-11-17T03:52:55.000Z,9.70
2022-11-17T04:02:55.000Z,10.60
2022-11-17T04:12:55.000Z,10.80
2022-11-17T04:22:55.000Z,10.70
2022-11-17T04:32:55.000Z,10.90
2022-11-17T04:42:55.000Z,11.60
2022-11-17T04:52:55.000Z,12.20
2022-11-17T05:02:55.000Z,10.30
2022-11-17T05:22:55.000Z,9.90
2022-11-17T05:32:55.000Z,11.00
2022-11-17T05:42:55.000Z,9.40
2022-11-17T05:52:55.000Z,11.50
2022-11-17T06:02:55.000Z,10.90
2022-11-17T06:12:55.000Z,12.80
2022-11-17T06:22:55.000Z,13.30
2022-11-17T06:32:55.000Z,12.70
2022-11-17T06:52:56.000Z,13.00
2022-11-17T07:02:56.000Z,13.50
2022-11-17T07:12:56.000Z,12.50
2022-11-17T07:22:56.000Z,11.60
2022-11-17T07:32:56.000Z,12.10
2022-11-17T07:42:56.000Z,13.00
2022-11-17T07:52:56.000Z,13.20
2022-11-17T08:02:56.000Z,11.10
2022-11-17T08:22:56.000Z,11.20
2022-11-17T08:32:56.000Z,11.20
2022-11-17T08:42:56.000Z,12.20
2022-11-17T08:52:56.000Z,11.70
2022-11-17T09:02:56.000Z,13.00
2022-11-17T09:12:56.000Z,12.50
2022-11-17T09:22:56.000Z,13.30
2022-11-17T09:32:56.000Z,13.90
2022-11-17T09:52:56.000Z,14.10
2022-11-17T10:02:56.000Z,13.20
2022-11-17T10:12:56.000Z,16.00
2022-11-17T10:22:56.000Z,13.70
2022-11-17T10:32:56.000Z,14.80
2022-11-17T10:42:56.000Z,13.70
2022-11-17T10:42:56.000Z,13.70
2022-11-17T10:52:56.000Z,15.60
2022-11-17T11:02:56.000Z,15.50
2022-11-17T11:22:55.000Z,17.10
2022-11-17T11:32:55.000Z,17.10
2022-11-17T11:42:55.000Z,15.70
2022-11-17T11:52:55.000Z,17.70
2022-11-17T12:02:55.000Z,17.90
2022-11-17T12:12:55.000Z,16.60
2022-11-17T14:23:48.000Z,15.40
2022-11-17T14:44:06.000Z,20.20
2022-11-17T17:05:33.000Z,18.70
2022-11-17T18:13:13.000Z,21.50
2022-11-17T18:33:48.000Z,21.80
2022-11-17T18:44:06.000Z,24.80
2022-11-17T18:44:06.000Z,26.00
2022-11-17T18:54:06.000Z,25.90
2022-11-17T19:04:06.000Z,72.30
2022-11-17T19:14:05.000Z,27.80
2022-11-17T19:24:05.000Z,30.30
2022-11-17T19:34:05.000Z,24.90
2022-11-17T19:44:05.000Z,24.60
2022-11-17T20:24:22.000Z,25.30
2022-11-17T20:44:40.000Z,26.90
2022-11-17T20:44:40.000Z,27.60
2022-11-17T21:09:59.000Z,26.80
2022-11-17T21:09:59.000Z,33.40
2022-11-17T21:35:16.000Z,30.90
2022-11-17T21:35:16.000Z,32.10
